sensor_id;sensor_type;location;lat;lon;timestamp;pressure;altitude;pressure_sealevel;temperature;humidity
49813;BME280;35706;52.100;5.056;2023-02-15T00:00:43;102862.41;;;9.81;70.61
49813;BME280;35706;52.100;5.056;2023-02-15T00:01:44;102862.56;;;9.78;70.73
49813;BME280;35706;52.100;5.056;2023-02-15T00:02:45;102868.66;;;9.78;70.41
49813;BME280;35706;52.100;5.056;2023-02-15T00:03:47;102866.94;;;9.62;70.93
49813;BME280;35706;52.100;5.056;2023-02-15T00:04:48;102875.25;;;9.52;71.18
49813;BME280;35706;52.100;5.056;2023-02-15T00:05:50;102864.75;;;9.52;71.17
49813;BME280;35706;52.100;5.056;2023-02-15T00:06:50;102863.09;;;9.51;71.04
49813;BME280;35706;52.100;5.056;2023-02-15T00:07:50;102865.63;;;9.53;71.06
49813;BME280;35706;52.100;5.056;2023-02-15T00:08:51;102867.50;;;9.51;71.05
49813;BME280;35706;52.100;5.056;2023-02-15T00:09:51;102869.66;;;9.43;71.51
49813;BME280;35706;52.100;5.056;2023-02-15T00:10:51;102867.94;;;9.42;71.55
49813;BME280;35706;52.100;5.056;2023-02-15T00:11:52;102859.94;;;9.45;71.45
49813;BME280;35706;52.100;5.056;2023-02-15T00:12:52;102864.75;;;9.52;71.37
49813;BME280;35706;52.100;5.056;2023-02-15T00:13:52;102866.03;;;9.45;71.57
49813;BME280;35706;52.100;5.056;2023-02-15T00:14:52;102861.09;;;9.39;71.82
49813;BME280;35706;52.100;5.056;2023-02-15T00:15:53;102855.59;;;9.44;71.85
49813;BME280;35706;52.100;5.056;2023-02-15T00:16:53;102860.38;;;9.35;71.76
49813;BME280;35706;52.100;5.056;2023-02-15T00:17:54;102853.91;;;9.43;71.65
49813;BME280;35706;52.100;5.056;2023-02-15T00:18:56;102855.84;;;9.39;71.77
49813;BME280;35706;52.100;5.056;2023-02-15T00:19:56;102853.06;;;9.42;71.69
49813;BME280;35706;52.100;5.056;2023-02-15T00:20:57;102851.00;;;9.31;72.19
49813;BME280;35706;52.100;5.056;2023-02-15T00:21:58;102851.59;;;9.36;71.94
49813;BME280;35706;52.100;5.056;2023-02-15T00:22:58;102845.75;;;9.31;72.18
49813;BME280;35706;52.100;5.056;2023-02-15T00:24:00;102845.41;;;9.37;72.36
49813;BME280;35706;52.100;5.056;2023-02-15T00:25:01;102843.41;;;9.43;72.00
49813;BME280;35706;52.100;5.056;2023-02-15T00:26:07;102844.09;;;9.46;71.87
49813;BME280;35706;52.100;5.056;2023-02-15T00:27:07;102837.63;;;9.36;72.08
49813;BME280;35706;52.100;5.056;2023-02-15T00:28:09;102850.66;;;9.37;71.90
49813;BME280;35706;52.100;5.056;2023-02-15T00:29:10;102836.31;;;9.45;72.03
49813;BME280;35706;52.100;5.056;2023-02-15T00:30:11;102845.41;;;9.37;71.88
49813;BME280;35706;52.100;5.056;2023-02-15T00:31:12;102843.94;;;9.49;71.86
49813;BME280;35706;52.100;5.056;2023-02-15T00:32:12;102839.84;;;9.44;71.78
49813;BME280;35706;52.100;5.056;2023-02-15T00:33:12;102846.94;;;9.42;71.85
49813;BME280;35706;52.100;5.056;2023-02-15T00:34:19;102836.56;;;9.40;72.07
49813;BME280;35706;52.100;5.056;2023-02-15T00:35:20;102841.03;;;9.38;71.81
49813;BME280;35706;52.100;5.056;2023-02-15T00:36:20;102842.72;;;9.39;71.98
49813;BME280;35706;52.100;5.056;2023-02-15T00:37:20;102838.78;;;9.30;72.27
49813;BME280;35706;52.100;5.056;2023-02-15T00:38:21;102844.63;;;9.35;72.17
49813;BME280;35706;52.100;5.056;2023-02-15T00:39:21;102844.25;;;9.43;71.91
49813;BME280;35706;52.100;5.056;2023-02-15T00:40:22;102841.09;;;9.36;72.03
49813;BME280;35706;52.100;5.056;2023-02-15T00:41:22;102839.56;;;9.32;72.06
49813;BME280;35706;52.100;5.056;2023-02-15T00:42:23;102837.09;;;9.29;72.09
49813;BME280;35706;52.100;5.056;2023-02-15T00:43:23;102836.41;;;9.26;72.30
49813;BME280;35706;52.100;5.056;2023-02-15T00:44:24;102831.63;;;9.34;72.05
49813;BME280;35706;52.100;5.056;2023-02-15T00:45:24;102833.06;;;9.40;72.04
49813;BME280;35706;52.100;5.056;2023-02-15T00:46:24;102837.72;;;9.34;72.32
49813;BME280;35706;52.100;5.056;2023-02-15T00:47:25;102834.78;;;9.23;72.18
49813;BME280;35706;52.100;5.056;2023-02-15T00:48:25;102835.09;;;9.17;72.38
49813;BME280;35706;52.100;5.056;2023-02-15T00:49:26;102830.53;;;9.21;72.64
49813;BME280;35706;52.100;5.056;2023-02-15T00:50:26;102839.56;;;9.32;72.60
49813;BME280;35706;52.100;5.056;2023-02-15T00:51:27;102834.94;;;9.20;72.50
49813;BME280;35706;52.100;5.056;2023-02-15T00:52:27;102836.47;;;9.24;72.67
49813;BME280;35706;52.100;5.056;2023-02-15T00:53:28;102833.84;;;9.24;72.64
49813;BME280;35706;52.100;5.056;2023-02-15T00:54:28;102827.38;;;9.14;72.71
49813;BME280;35706;52.100;5.056;2023-02-15T00:55:28;102832.47;;;9.17;72.55
49813;BME280;35706;52.100;5.056;2023-02-15T00:56:29;102832.56;;;9.15;72.49
49813;BME280;35706;52.100;5.056;2023-02-15T00:57:29;102834.78;;;9.06;72.73
49813;BME280;35706;52.100;5.056;2023-02-15T00:58:29;102829.31;;;9.10;72.60
49813;BME280;35706;52.100;5.056;2023-02-15T00:59:30;102830.94;;;9.13;72.54
49813;BME280;35706;52.100;5.056;2023-02-15T01:00:30;102834.78;;;9.23;72.28
49813;BME280;35706;52.100;5.056;2023-02-15T01:01:30;102827.31;;;9.15;72.32
49813;BME280;35706;52.100;5.056;2023-02-15T01:02:31;102824.69;;;9.15;72.19
49813;BME280;35706;52.100;5.056;2023-02-15T01:03:31;102830.63;;;9.19;72.21
49813;BME280;35706;52.100;5.056;2023-02-15T01:04:32;102827.38;;;9.14;72.63
49813;BME280;35706;52.100;5.056;2023-02-15T01:05:32;102832.25;;;9.04;72.72
49813;BME280;35706;52.100;5.056;2023-02-15T01:06:32;102831.94;;;9.10;72.57
49813;BME280;35706;52.100;5.056;2023-02-15T01:07:33;102827.38;;;9.14;72.40
49813;BME280;35706;52.100;5.056;2023-02-15T01:08:34;102835.00;;;9.01;72.34
49813;BME280;35706;52.100;5.056;2023-02-15T01:09:34;102831.16;;;8.91;72.78
49813;BME280;35706;52.100;5.056;2023-02-15T01:10:35;102836.41;;;8.91;72.93
49813;BME280;35706;52.100;5.056;2023-02-15T01:11:35;102826.25;;;8.85;72.93
49813;BME280;35706;52.100;5.056;2023-02-15T01:12:36;102830.72;;;8.83;72.95
49813;BME280;35706;52.100;5.056;2023-02-15T01:13:36;102833.41;;;8.81;73.32
49813;BME280;35706;52.100;5.056;2023-02-15T01:14:36;102830.31;;;8.90;73.08
49813;BME280;35706;52.100;5.056;2023-02-15T01:15:37;102836.09;;;8.97;72.79
49813;BME280;35706;52.100;5.056;2023-02-15T01:16:37;102828.03;;;9.02;73.08
49813;BME280;35706;52.100;5.056;2023-02-15T01:17:37;102826.47;;;8.98;72.93
49813;BME280;35706;52.100;5.056;2023-02-15T01:18:38;102819.22;;;9.03;72.83
49813;BME280;35706;52.100;5.056;2023-02-15T01:19:38;102831.38;;;9.04;72.85
49813;BME280;35706;52.100;5.056;2023-02-15T01:20:39;102826.00;;;9.07;72.86
49813;BME280;35706;52.100;5.056;2023-02-15T01:21:41;102813.78;;;9.06;72.70
49813;BME280;35706;52.100;5.056;2023-02-15T01:22:41;102817.06;;;9.11;72.80
49813;BME280;35706;52.100;5.056;2023-02-15T01:23:42;102810.25;;;9.07;72.91
49813;BME280;35706;52.100;5.056;2023-02-15T01:24:42;102811.09;;;9.07;72.83
49813;BME280;35706;52.100;5.056;2023-02-15T01:25:43;102810.97;;;9.10;72.85
49813;BME280;35706;52.100;5.056;2023-02-15T01:26:43;102804.06;;;9.08;72.64
49813;BME280;35706;52.100;5.056;2023-02-15T01:27:43;102804.00;;;9.09;72.74
49813;BME280;35706;52.100;5.056;2023-02-15T01:28:45;102797.91;;;9.09;72.63
49813;BME280;35706;52.100;5.056;2023-02-15T01:29:45;102803.41;;;9.04;72.84
49813;BME280;35706;52.100;5.056;2023-02-15T01:30:47;102802.47;;;9.05;73.13
49813;BME280;35706;52.100;5.056;2023-02-15T01:31:50;102803.06;;;8.93;73.13
49813;BME280;35706;52.100;5.056;2023-02-15T01:32:50;102797.47;;;9.01;73.04
49813;BME280;35706;52.100;5.056;2023-02-15T01:33:50;102794.44;;;9.08;72.83
49813;BME280;35706;52.100;5.056;2023-02-15T01:34:50;102799.53;;;9.11;72.74
49813;BME280;35706;52.100;5.056;2023-02-15T01:35:57;102796.38;;;9.05;72.74
49813;BME280;35706;52.100;5.056;2023-02-15T01:36:58;102790.91;;;8.92;73.63
49813;BME280;35706;52.100;5.056;2023-02-15T01:37:58;102787.03;;;8.99;73.50
49813;BME280;35706;52.100;5.056;2023-02-15T01:39:00;102791.31;;;9.02;73.38
49813;BME280;35706;52.100;5.056;2023-02-15T01:40:01;102783.50;;;9.00;73.32
49813;BME280;35706;52.100;5.056;2023-02-15T01:41:02;102783.75;;;8.95;73.56
49813;BME280;35706;52.100;5.056;2023-02-15T01:42:24;102782.66;;;9.00;73.24
49813;BME280;35706;52.100;5.056;2023-02-15T01:43:39;102777.31;;;9.01;73.37
49813;BME280;35706;52.100;5.056;2023-02-15T01:44:58;102773.25;;;8.95;73.48
49813;BME280;35706;52.100;5.056;2023-02-15T01:45:58;102782.41;;;9.04;73.05
49813;BME280;35706;52.100;5.056;2023-02-15T01:46:59;102781.66;;;9.02;73.29
49813;BME280;35706;52.100;5.056;2023-02-15T01:48:14;102780.25;;;8.95;73.66
49813;BME280;35706;52.100;5.056;2023-02-15T01:49:19;102779.34;;;8.79;74.16
49813;BME280;35706;52.100;5.056;2023-02-15T01:51:29;102783.03;;;8.74;74.50
49813;BME280;35706;52.100;5.056;2023-02-15T01:52:31;102778.16;;;8.84;74.23
49813;BME280;35706;52.100;5.056;2023-02-15T01:53:42;102782.50;;;8.85;73.81
49813;BME280;35706;52.100;5.056;2023-02-15T01:54:44;102781.31;;;8.91;73.84
49813;BME280;35706;52.100;5.056;2023-02-15T01:55:50;102779.56;;;8.91;73.45
49813;BME280;35706;52.100;5.056;2023-02-15T01:56:52;102779.78;;;8.87;73.55
49813;BME280;35706;52.100;5.056;2023-02-15T01:57:55;102779.09;;;8.83;73.73
49813;BME280;35706;52.100;5.056;2023-02-15T01:58:59;102779.41;;;8.77;73.92
49813;BME280;35706;52.100;5.056;2023-02-15T02:00:03;102778.25;;;8.83;73.96
49813;BME280;35706;52.100;5.056;2023-02-15T02:01:07;102775.72;;;8.81;73.74
49813;BME280;35706;52.100;5.056;2023-02-15T02:02:09;102776.25;;;8.88;73.74
49813;BME280;35706;52.100;5.056;2023-02-15T02:03:12;102775.25;;;8.90;73.44
49813;BME280;35706;52.100;5.056;2023-02-15T02:04:36;102779.56;;;8.91;73.46
49813;BME280;35706;52.100;5.056;2023-02-15T02:05:39;102778.16;;;8.84;73.44
49813;BME280;35706;52.100;5.056;2023-02-15T02:06:41;102774.25;;;8.75;73.83
49813;BME280;35706;52.100;5.056;2023-02-15T02:07:43;102779.25;;;8.80;73.77
49813;BME280;35706;52.100;5.056;2023-02-15T02:08:44;102772.38;;;8.77;73.98
49813;BME280;35706;52.100;5.056;2023-02-15T02:09:47;102771.84;;;8.71;74.04
49813;BME280;35706;52.100;5.056;2023-02-15T02:10:47;102767.13;;;8.77;74.01
49813;BME280;35706;52.100;5.056;2023-02-15T02:11:48;102775.53;;;8.67;74.24
49813;BME280;35706;52.100;5.056;2023-02-15T02:12:52;102771.44;;;8.61;74.62
49813;BME280;35706;52.100;5.056;2023-02-15T02:13:53;102773.75;;;8.50;74.60
49813;BME280;35706;52.100;5.056;2023-02-15T02:14:55;102768.16;;;8.58;74.63
49813;BME280;35706;52.100;5.056;2023-02-15T02:16:12;102771.06;;;8.51;74.74
49813;BME280;35706;52.100;5.056;2023-02-15T02:18:53;102766.56;;;8.36;75.33
49813;BME280;35706;52.100;5.056;2023-02-15T02:27:28;102744.56;;;8.75;73.58
49813;BME280;35706;52.100;5.056;2023-02-15T02:28:38;102741.75;;;8.78;73.59
49813;BME280;35706;52.100;5.056;2023-02-15T02:34:16;102735.38;;;8.49;74.52
49813;BME280;35706;52.100;5.056;2023-02-15T02:35:27;102737.84;;;8.52;74.16
49813;BME280;35706;52.100;5.056;2023-02-15T02:37:59;102743.44;;;8.44;75.48
49813;BME280;35706;52.100;5.056;2023-02-15T02:39:12;102736.25;;;8.30;75.41
49813;BME280;35706;52.100;5.056;2023-02-15T02:40:25;102739.09;;;8.26;75.39
49813;BME280;35706;52.100;5.056;2023-02-15T02:44:43;102731.53;;;8.20;75.86
49813;BME280;35706;52.100;5.056;2023-02-15T02:45:50;102740.41;;;8.17;76.06
49813;BME280;35706;52.100;5.056;2023-02-15T02:48:15;102732.59;;;8.15;75.94
49813;BME280;35706;52.100;5.056;2023-02-15T02:49:16;102727.38;;;8.15;76.12
49813;BME280;35706;52.100;5.056;2023-02-15T02:50:26;102727.06;;;8.22;75.78
49813;BME280;35706;52.100;5.056;2023-02-15T02:51:27;102724.59;;;8.19;75.72
49813;BME280;35706;52.100;5.056;2023-02-15T02:53:39;102721.59;;;8.26;75.50
49813;BME280;35706;52.100;5.056;2023-02-15T02:54:40;102727.56;;;8.30;75.56
49813;BME280;35706;52.100;5.056;2023-02-15T02:56:47;102720.66;;;8.27;75.59
49813;BME280;35706;52.100;5.056;2023-02-15T02:58:14;102719.88;;;8.25;75.42
49813;BME280;35706;52.100;5.056;2023-02-15T02:59:30;102725.06;;;8.27;75.25
49813;BME280;35706;52.100;5.056;2023-02-15T03:00:36;102719.88;;;8.25;75.35
49813;BME280;35706;52.100;5.056;2023-02-15T03:01:44;102719.75;;;8.28;75.02
49813;BME280;35706;52.100;5.056;2023-02-15T03:02:48;102718.28;;;8.23;75.14
49813;BME280;35706;52.100;5.056;2023-02-15T03:03:54;102716.06;;;8.32;74.95
49813;BME280;35706;52.100;5.056;2023-02-15T03:05:03;102709.81;;;8.35;74.77
49813;BME280;35706;52.100;5.056;2023-02-15T03:06:12;102719.38;;;8.36;74.74
49813;BME280;35706;52.100;5.056;2023-02-15T03:07:18;102705.50;;;8.34;74.97
49813;BME280;35706;52.100;5.056;2023-02-15T03:08:24;102710.19;;;8.27;75.12
49813;BME280;35706;52.100;5.056;2023-02-15T03:09:37;102698.78;;;8.28;75.17
49813;BME280;35706;52.100;5.056;2023-02-15T03:10:44;102701.25;;;8.31;74.85
49813;BME280;35706;52.100;5.056;2023-02-15T03:11:45;102702.63;;;8.21;75.20
49813;BME280;35706;52.100;5.056;2023-02-15T03:12:46;102698.47;;;8.17;75.52
49813;BME280;35706;52.100;5.056;2023-02-15T03:13:48;102698.16;;;8.23;75.11
49813;BME280;35706;52.100;5.056;2023-02-15T03:14:57;102691.16;;;8.24;75.69
49813;BME280;35706;52.100;5.056;2023-02-15T03:16:01;102691.59;;;8.14;75.75
49813;BME280;35706;52.100;5.056;2023-02-15T03:17:26;102687.44;;;8.10;75.94
49813;BME280;35706;52.100;5.056;2023-02-15T03:18:41;102691.53;;;8.16;75.59
49813;BME280;35706;52.100;5.056;2023-02-15T03:19:44;102698.84;;;8.09;76.04
49813;BME280;35706;52.100;5.056;2023-02-15T03:20:46;102693.09;;;8.20;75.54
49813;BME280;35706;52.100;5.056;2023-02-15T03:21:50;102696.22;;;8.09;75.99
49813;BME280;35706;52.100;5.056;2023-02-15T03:23:06;102694.50;;;8.08;76.11
49813;BME280;35706;52.100;5.056;2023-02-15T03:24:13;102701.59;;;8.06;76.06
49813;BME280;35706;52.100;5.056;2023-02-15T03:25:23;102696.22;;;8.09;76.37
49813;BME280;35706;52.100;5.056;2023-02-15T03:26:25;102701.59;;;8.06;76.17
49813;BME280;35706;52.100;5.056;2023-02-15T03:27:31;102692.66;;;8.10;76.11
49813;BME280;35706;52.100;5.056;2023-02-15T03:28:42;102696.16;;;8.11;75.94
49813;BME280;35706;52.100;5.056;2023-02-15T03:29:47;102694.22;;;8.14;75.77
49813;BME280;35706;52.100;5.056;2023-02-15T03:30:52;102693.25;;;8.17;75.62
49813;BME280;35706;52.100;5.056;2023-02-15T03:31:59;102698.47;;;8.17;75.73
49813;BME280;35706;52.100;5.056;2023-02-15T03:33:01;102693.16;;;8.19;75.49
49813;BME280;35706;52.100;5.056;2023-02-15T03:34:05;102696.16;;;8.11;75.83
49813;BME280;35706;52.100;5.056;2023-02-15T03:35:07;102695.28;;;8.10;76.03
49813;BME280;35706;52.100;5.056;2023-02-15T03:37:51;102697.47;;;8.02;76.00
49813;BME280;35706;52.100;5.056;2023-02-15T03:39:14;102689.13;;;7.94;75.94
49813;BME280;35706;52.100;5.056;2023-02-15T03:40:26;102688.88;;;7.99;76.14
49813;BME280;35706;52.100;5.056;2023-02-15T03:41:57;102697.81;;;7.94;76.29
49813;BME280;35706;52.100;5.056;2023-02-15T03:43:12;102694.34;;;7.94;76.37
49813;BME280;35706;52.100;5.056;2023-02-15T03:44:19;102692.56;;;7.94;76.42
49813;BME280;35706;52.100;5.056;2023-02-15T03:45:26;102696.03;;;7.95;76.26
49813;BME280;35706;52.100;5.056;2023-02-15T03:46:37;102701.28;;;7.95;76.23
49813;BME280;35706;52.100;5.056;2023-02-15T03:47:44;102689.31;;;7.89;76.27
49813;BME280;35706;52.100;5.056;2023-02-15T03:48:52;102690.03;;;7.93;76.29
49813;BME280;35706;52.100;5.056;2023-02-15T03:49:57;102696.75;;;7.99;76.08
49813;BME280;35706;52.100;5.056;2023-02-15T03:51:05;102681.09;;;7.97;75.82
49813;BME280;35706;52.100;5.056;2023-02-15T03:52:27;102684.53;;;7.80;76.54
49813;BME280;35706;52.100;5.056;2023-02-15T03:53:30;102689.06;;;7.77;76.79
49813;BME280;35706;52.100;5.056;2023-02-15T03:54:33;102684.31;;;7.85;76.33
49813;BME280;35706;52.100;5.056;2023-02-15T03:55:47;102683.00;;;7.93;76.21
49813;BME280;35706;52.100;5.056;2023-02-15T03:56:48;102683.19;;;7.71;76.80
49813;BME280;35706;52.100;5.056;2023-02-15T03:58:08;102684.13;;;7.70;76.95
49813;BME280;35706;52.100;5.056;2023-02-15T03:59:27;102682.25;;;7.72;76.86
49813;BME280;35706;52.100;5.056;2023-02-15T04:03:54;102676.69;;;7.61;76.77
49813;BME280;35706;52.100;5.056;2023-02-15T04:04:56;102680.88;;;7.65;77.04
49813;BME280;35706;52.100;5.056;2023-02-15T04:05:56;102677.53;;;7.62;77.25
49813;BME280;35706;52.100;5.056;2023-02-15T04:06:56;102677.63;;;7.60;77.17
49813;BME280;35706;52.100;5.056;2023-02-15T04:07:57;102680.31;;;7.59;77.16
49813;BME280;35706;52.100;5.056;2023-02-15T04:08:57;102683.69;;;7.42;77.65
49813;BME280;35706;52.100;5.056;2023-02-15T04:10:18;102680.81;;;7.48;77.64
49813;BME280;35706;52.100;5.056;2023-02-15T04:11:36;102667.78;;;7.46;77.26
49813;BME280;35706;52.100;5.056;2023-02-15T04:12:36;102675.63;;;7.46;77.47
49813;BME280;35706;52.100;5.056;2023-02-15T04:13:37;102678.97;;;7.50;77.39
49813;BME280;35706;52.100;5.056;2023-02-15T04:14:40;102672.25;;;7.44;77.76
49813;BME280;35706;52.100;5.056;2023-02-15T04:15:59;102671.34;;;7.26;77.99
49813;BME280;35706;52.100;5.056;2023-02-15T04:17:06;102678.13;;;7.30;78.06
49813;BME280;35706;52.100;5.056;2023-02-15T04:18:06;102673.00;;;7.27;78.10
49813;BME280;35706;52.100;5.056;2023-02-15T04:19:06;102672.13;;;7.28;77.65
49813;BME280;35706;52.100;5.056;2023-02-15T04:20:25;102667.28;;;7.19;78.35
49813;BME280;35706;52.100;5.056;2023-02-15T04:21:44;102675.78;;;7.24;77.97
49813;BME280;35706;52.100;5.056;2023-02-15T04:23:05;102672.75;;;7.33;77.55
49813;BME280;35706;52.100;5.056;2023-02-15T04:24:24;102671.41;;;7.44;77.48
49813;BME280;35706;52.100;5.056;2023-02-15T04:25:43;102673.97;;;7.45;76.91
49813;BME280;35706;52.100;5.056;2023-02-15T04:26:43;102672.25;;;7.44;77.04
49813;BME280;35706;52.100;5.056;2023-02-15T04:27:49;102666.78;;;7.30;77.30
49813;BME280;35706;52.100;5.056;2023-02-15T04:28:49;102668.63;;;7.28;77.35
49813;BME280;35706;52.100;5.056;2023-02-15T04:29:50;102668.00;;;7.23;77.44
49813;BME280;35706;52.100;5.056;2023-02-15T04:30:50;102667.28;;;7.19;77.82
49813;BME280;35706;52.100;5.056;2023-02-15T04:31:51;102659.31;;;7.22;77.47
49813;BME280;35706;52.100;5.056;2023-02-15T04:32:54;102658.81;;;7.33;77.43
49813;BME280;35706;52.100;5.056;2023-02-15T04:33:57;102662.03;;;7.19;77.77
49813;BME280;35706;52.100;5.056;2023-02-15T04:34:57;102653.25;;;7.22;77.75
49813;BME280;35706;52.100;5.056;2023-02-15T04:35:57;102660.38;;;7.18;78.00
49813;BME280;35706;52.100;5.056;2023-02-15T04:36:58;102651.69;;;7.18;77.65
49813;BME280;35706;52.100;5.056;2023-02-15T04:38:00;102653.56;;;7.14;78.15
49813;BME280;35706;52.100;5.056;2023-02-15T04:39:01;102657.31;;;7.08;78.04
49813;BME280;35706;52.100;5.056;2023-02-15T04:40:02;102653.91;;;7.06;78.35
49813;BME280;35706;52.100;5.056;2023-02-15T04:41:02;102647.69;;;7.09;78.36
49813;BME280;35706;52.100;5.056;2023-02-15T04:42:03;102647.38;;;6.96;78.67
49813;BME280;35706;52.100;5.056;2023-02-15T04:43:03;102650.69;;;6.81;79.16
49813;BME280;35706;52.100;5.056;2023-02-15T04:44:04;102639.63;;;6.95;78.71
49813;BME280;35706;52.100;5.056;2023-02-15T04:45:05;102643.59;;;7.03;78.28
49813;BME280;35706;52.100;5.056;2023-02-15T04:46:05;102642.59;;;7.06;78.10
49813;BME280;35706;52.100;5.056;2023-02-15T04:47:06;102640.47;;;6.95;78.56
49813;BME280;35706;52.100;5.056;2023-02-15T04:48:06;102636.03;;;7.16;77.63
49813;BME280;35706;52.100;5.056;2023-02-15T04:49:08;102647.63;;;7.10;77.60
49813;BME280;35706;52.100;5.056;2023-02-15T04:50:09;102638.69;;;6.96;78.47
49813;BME280;35706;52.100;5.056;2023-02-15T04:51:09;102649.16;;;6.96;78.53
49813;BME280;35706;52.100;5.056;2023-02-15T04:52:09;102645.34;;;6.84;78.54
49813;BME280;35706;52.100;5.056;2023-02-15T04:53:11;102642.91;;;6.79;79.11
49813;BME280;35706;52.100;5.056;2023-02-15T04:54:11;102642.53;;;6.88;78.73
49813;BME280;35706;52.100;5.056;2023-02-15T04:55:11;102650.00;;;6.96;78.64
49813;BME280;35706;52.100;5.056;2023-02-15T04:56:12;102646.03;;;6.87;78.62
49813;BME280;35706;52.100;5.056;2023-02-15T04:57:12;102647.75;;;6.88;78.81
49813;BME280;35706;52.100;5.056;2023-02-15T04:58:13;102656.25;;;6.73;79.26
49813;BME280;35706;52.100;5.056;2023-02-15T04:59:13;102642.56;;;6.87;78.90
49813;BME280;35706;52.100;5.056;2023-02-15T05:00:14;102646.19;;;6.84;78.53
49813;BME280;35706;52.100;5.056;2023-02-15T05:01:15;102646.72;;;6.72;79.22
49813;BME280;35706;52.100;5.056;2023-02-15T05:02:15;102644.38;;;6.66;79.39
49813;BME280;35706;52.100;5.056;2023-02-15T05:03:15;102649.38;;;6.70;79.48
49813;BME280;35706;52.100;5.056;2023-02-15T05:04:16;102638.94;;;6.70;79.31
49813;BME280;35706;52.100;5.056;2023-02-15T05:05:16;102639.66;;;6.74;79.17
49813;BME280;35706;52.100;5.056;2023-02-15T05:06:17;102650.91;;;6.76;78.96
49813;BME280;35706;52.100;5.056;2023-02-15T05:07:17;102643.06;;;6.76;79.01
49813;BME280;35706;52.100;5.056;2023-02-15T05:08:20;102643.69;;;6.81;78.48
49813;BME280;35706;52.100;5.056;2023-02-15T05:09:20;102647.44;;;6.76;78.80
49813;BME280;35706;52.100;5.056;2023-02-15T05:10:21;102655.03;;;6.61;79.05
49813;BME280;35706;52.100;5.056;2023-02-15T05:11:21;102647.38;;;6.57;79.54
49813;BME280;35706;52.100;5.056;2023-02-15T05:12:21;102648.28;;;6.56;79.43
49813;BME280;35706;52.100;5.056;2023-02-15T05:13:22;102648.81;;;6.64;79.54
49813;BME280;35706;52.100;5.056;2023-02-15T05:14:22;102647.03;;;6.64;79.23
49813;BME280;35706;52.100;5.056;2023-02-15T05:15:23;102639.66;;;6.74;78.72
49813;BME280;35706;52.100;5.056;2023-02-15T05:16:23;102643.09;;;6.75;78.94
49813;BME280;35706;52.100;5.056;2023-02-15T05:17:24;102644.31;;;6.67;79.03
49813;BME280;35706;52.100;5.056;2023-02-15T05:18:24;102641.03;;;6.62;79.32
49813;BME280;35706;52.100;5.056;2023-02-15T05:19:24;102635.81;;;6.62;79.45
49813;BME280;35706;52.100;5.056;2023-02-15T05:20:25;102642.53;;;6.68;79.15
49813;BME280;35706;52.100;5.056;2023-02-15T05:21:25;102641.44;;;6.53;79.69
49813;BME280;35706;52.100;5.056;2023-02-15T05:22:25;102637.56;;;6.62;79.39
49813;BME280;35706;52.100;5.056;2023-02-15T05:23:26;102636.25;;;6.51;79.79
49813;BME280;35706;52.100;5.056;2023-02-15T05:24:26;102635.47;;;6.70;79.09
49813;BME280;35706;52.100;5.056;2023-02-15T05:25:49;102626.81;;;6.69;78.75
49813;BME280;35706;52.100;5.056;2023-02-15T05:27:12;102637.78;;;6.57;79.13
49813;BME280;35706;52.100;5.056;2023-02-15T05:28:31;102641.84;;;6.44;79.89
49813;BME280;35706;52.100;5.056;2023-02-15T05:29:31;102641.94;;;6.41;80.14
49813;BME280;35706;52.100;5.056;2023-02-15T05:30:31;102647.44;;;6.55;79.74
49813;BME280;35706;52.100;5.056;2023-02-15T05:31:32;102637.56;;;6.62;79.38
49813;BME280;35706;52.100;5.056;2023-02-15T05:32:33;102637.19;;;6.71;79.27
49813;BME280;35706;52.100;5.056;2023-02-15T05:33:34;102639.88;;;6.49;79.40
49813;BME280;35706;52.100;5.056;2023-02-15T05:34:34;102642.06;;;6.58;79.03
49813;BME280;35706;52.100;5.056;2023-02-15T05:35:35;102645.22;;;6.46;79.25
49813;BME280;35706;52.100;5.056;2023-02-15T05:36:35;102643.72;;;6.40;79.89
49813;BME280;35706;52.100;5.056;2023-02-15T05:37:38;102645.16;;;6.47;79.25
49813;BME280;35706;52.100;5.056;2023-02-15T05:38:42;102637.66;;;6.40;79.56
49813;BME280;35706;52.100;5.056;2023-02-15T05:39:42;102637.72;;;6.38;79.62
49813;BME280;35706;52.100;5.056;2023-02-15T05:40:42;102634.31;;;6.36;79.82
49813;BME280;35706;52.100;5.056;2023-02-15T05:41:43;102637.72;;;6.38;79.56
49813;BME280;35706;52.100;5.056;2023-02-15T05:42:43;102642.34;;;6.31;79.96
49813;BME280;35706;52.100;5.056;2023-02-15T05:43:43;102635.88;;;6.40;79.56
49813;BME280;35706;52.100;5.056;2023-02-15T05:44:43;102638.34;;;6.43;79.29
49813;BME280;35706;52.100;5.056;2023-02-15T05:45:48;102632.28;;;6.43;79.26
49813;BME280;35706;52.100;5.056;2023-02-15T05:46:49;102640.47;;;6.35;79.72
49813;BME280;35706;52.100;5.056;2023-02-15T05:47:50;102629.69;;;6.22;79.89
49813;BME280;35706;52.100;5.056;2023-02-15T05:48:50;102631.97;;;6.30;79.57
49813;BME280;35706;52.100;5.056;2023-02-15T05:49:50;102635.41;;;6.30;79.95
49813;BME280;35706;52.100;5.056;2023-02-15T05:51:01;102635.06;;;6.18;79.84
49813;BME280;35706;52.100;5.056;2023-02-15T05:52:03;102636.59;;;6.23;79.93
49813;BME280;35706;52.100;5.056;2023-02-15T05:53:03;102632.47;;;6.18;80.22
49813;BME280;35706;52.100;5.056;2023-02-15T05:54:04;102630.75;;;5.96;80.75
49813;BME280;35706;52.100;5.056;2023-02-15T05:55:04;102635.31;;;6.11;80.50
49813;BME280;35706;52.100;5.056;2023-02-15T05:56:07;102628.38;;;6.12;80.39
49813;BME280;35706;52.100;5.056;2023-02-15T05:57:08;102628.97;;;6.19;79.93
49813;BME280;35706;52.100;5.056;2023-02-15T05:58:08;102621.91;;;6.21;80.12
49813;BME280;35706;52.100;5.056;2023-02-15T05:59:09;102630.44;;;6.24;79.60
49813;BME280;35706;52.100;5.056;2023-02-15T06:00:09;102626.34;;;6.19;80.18
49813;BME280;35706;52.100;5.056;2023-02-15T06:01:14;102623.19;;;6.10;80.55
49813;BME280;35706;52.100;5.056;2023-02-15T06:02:15;102620.44;;;6.14;80.37
49813;BME280;35706;52.100;5.056;2023-02-15T06:03:15;102625.22;;;6.24;80.09
49813;BME280;35706;52.100;5.056;2023-02-15T06:04:16;102629.59;;;6.24;80.08
49813;BME280;35706;52.100;5.056;2023-02-15T06:05:17;102629.78;;;6.19;80.08